Pond Inlet Airport

CYIO | YIO

Pond Inlet , Nunavut , Canada

Saturday, September 21st, 2019 | 07:52

Weather

CYIO 211100Z AUTO 17004KT 9SM CLR M03/M06 A2966 RMK SLP050

Charts

No Charts Available

Gates

No Gates Available

Runways

1 Available

Events

No events for this airport


New event